»·PEaware :: N652MA KDLL-KOSH

N652MA :: KDLL-KOSH

FLIGHT INFORMATION

Flight Status: Arrived
Operator: Privately registered:
United States
More flights under this callsign
Pilot: Anonymous 25925 (25925)
Aircraft: Diamond DA-40
(DA40)
More flights by this aircraft type
Origin: KDLL Baraboo Wisconsin Dells
United States
Destination: KOSH Wittman Regl
United States
More flights between these airports :: More routes between these airports
Route: VPRIP VPFIS
File this flight plan on PilotEdge
Remarks:
Altitude:
(Current/Filed)
3,500ft
Speed:
(Current/Filed)
90kts
Departed: 18-Jul-21 03:50 PM
Arrived: 18-Jul-21 04:36 PM
Distance/Time
Traveled:
59nm/0:45
Distance/Time
To Go:
Arrived

Flight Plot

Page will automatically refresh every two minutes.

Flight plan parsing failed; only flown route is shown


Map Options




Map Legend


Flown Route
Filed Route
Departure Airport
Arrival Airport
Navaid (VOR, NDB)
Fix

Horizontal Profiles

Position Reports

Time Latitude Longitude Heading Altitude Ground
Speed
18-Jul-21 15:30 43.518835 -89.773578 279 978ft 0kts
18-Jul-21 15:31 43.518835 -89.773578 279 978ft 0kts
18-Jul-21 15:32 43.518835 -89.773578 279 978ft 0kts
18-Jul-21 15:33 43.518835 -89.773578 279 978ft 0kts
18-Jul-21 15:34 43.518835 -89.773578 279 978ft 0kts
18-Jul-21 15:35 43.518835 -89.773578 279 978ft 0kts
18-Jul-21 15:36 43.518835 -89.773578 279 978ft 0kts
18-Jul-21 15:37 43.518836 -89.773592 271 978ft 0kts
18-Jul-21 15:38 43.518836 -89.773592 271 978ft 0kts
18-Jul-21 15:39 43.518836 -89.773592 271 978ft 0kts
18-Jul-21 15:40 43.518836 -89.773592 271 978ft 0kts
18-Jul-21 15:41 43.518836 -89.773592 271 978ft 0kts
18-Jul-21 15:42 43.518836 -89.773593 271 978ft 0kts
18-Jul-21 15:43 43.517710 -89.774129 343 978ft 8kts
18-Jul-21 15:44 43.516057 -89.773212 175 981ft 14kts
18-Jul-21 15:45 43.515762 -89.772620 104 981ft 0kts
18-Jul-21 15:46 43.515762 -89.772620 104 981ft 0kts
18-Jul-21 15:47 43.515761 -89.772615 106 981ft 0kts
18-Jul-21 15:48 43.515761 -89.772612 105 981ft 0kts
18-Jul-21 15:49 43.515977 -89.771705 14 981ft 16kts
18-Jul-21 15:50 43.531334 -89.759806 58 1849ft 77kts
18-Jul-21 15:51 43.540565 -89.733822 77 2939ft 78kts
18-Jul-21 15:52 43.547158 -89.705495 63 3981ft 78kts
18-Jul-21 15:53 43.559425 -89.679403 63 4169ft 89kts
18-Jul-21 15:54 43.568994 -89.649706 62 3661ft 97kts
18-Jul-21 15:55 43.580878 -89.618185 64 3150ft 102kts
18-Jul-21 15:56 43.592784 -89.584089 63 2643ft 102kts
18-Jul-21 15:57 43.606173 -89.545725 63 2448ft 132kts
18-Jul-21 15:58 43.620399 -89.503279 64 3019ft 126kts
18-Jul-21 15:59 43.634204 -89.461908 64 3596ft 125kts
18-Jul-21 16:00 43.645745 -89.427100 64 3458ft 88kts
18-Jul-21 16:00 43.653637 -89.403350 64 2904ft 80kts
18-Jul-21 16:02 43.668434 -89.359293 64 2720ft 132kts
18-Jul-21 16:03 43.683002 -89.315857 65 3133ft 130kts
18-Jul-21 16:04 43.695229 -89.277655 67 3478ft 99kts
18-Jul-21 16:05 43.704216 -89.246296 70 3528ft 94kts
18-Jul-21 16:05 43.710703 -89.220599 70 3544ft 93kts
18-Jul-21 16:07 43.717671 -89.193056 70 3525ft 90kts
18-Jul-21 16:08 43.724177 -89.167341 70 3533ft 108kts
18-Jul-21 16:08 43.732877 -89.132799 70 3687ft 117kts
18-Jul-21 16:10 43.748839 -89.081778 64 3647ft 129kts
18-Jul-21 16:10 43.761803 -89.043938 64 3549ft 131kts
18-Jul-21 16:12 43.780317 -88.989981 64 3443ft 134kts
18-Jul-21 16:13 43.797055 -88.941261 64 3432ft 142kts
18-Jul-21 16:13 43.811234 -88.900049 64 3446ft 142kts
18-Jul-21 16:14 43.831364 -88.853272 52 3460ft 142kts
18-Jul-21 16:15 43.848491 -88.829237 43 3468ft 142kts
18-Jul-21 16:17 43.863046 -88.807870 50 3150ft 148kts
18-Jul-21 16:18 43.883071 -88.778358 45 2425ft 155kts
18-Jul-21 16:19 43.898100 -88.756949 46 1986ft 141kts
18-Jul-21 16:19 43.906540 -88.744070 47 1915ft 112kts
18-Jul-21 16:21 43.906907 -88.743510 47 1909ft 111kts
18-Jul-21 16:21 43.909222 -88.739979 47 1869ft 106kts
18-Jul-21 16:22 43.911301 -88.736807 47 1826ft 103kts
18-Jul-21 16:24 43.917881 -88.726769 47 1715ft 101kts
18-Jul-21 16:24 43.923809 -88.717726 47 1610ft 100kts
18-Jul-21 16:26 43.936219 -88.698836 47 1805ft 98kts
18-Jul-21 16:26 43.937884 -88.696297 47 1803ft 103kts
18-Jul-21 16:27 43.948092 -88.682234 39 1795ft 117kts
18-Jul-21 16:29 43.955853 -88.654753 85 1791ft 123kts
18-Jul-21 16:29 43.954258 -88.627162 112 1786ft 119kts
18-Jul-21 16:30 43.947218 -88.565020 85 1780ft 86kts
18-Jul-21 16:31 43.955792 -88.528897 359 1801ft 84kts
18-Jul-21 16:32 43.977527 -88.530072 353 1621ft 91kts
18-Jul-21 16:34 43.988822 -88.551274 245 1147ft 63kts
18-Jul-21 16:34 43.980159 -88.556495 179 820ft 63kts
18-Jul-21 16:35 43.976972 -88.557348 1 811ft 17kts

Navigation Log

Ident Type
Flight plan parsing failed, navigation log unavailable